ADDS TAF Board (Experimental) INFO Settings
IDs: Format: Expanded Condensed

KSAN - San Diego Intl Arpt, CA, US

Issued at 2021 UTC 29 May 2016
Updated at: 2104 UTC 29 May 2016
Time2051Z 29/22Z 29/23Z 30/00Z 30/01Z 30/02Z 30/03Z 30/04Z 30/05Z 30/06Z 30/07Z 30/08Z 30/09Z 30/10Z
Type OBS PRVL PRVL PRVL PRVL PRVL PRVL PRVL PRVL PRVL PRVL PRVL PRVL PRVL
VIS 10 >6 >6 >6 >6 >6 >6 >6 >6 >6 >6 >6 >6 >6
CIG 33 -- -- -- -- 20 20 20 20 20 16 16 16 16
Cover OVC SCT SCT SCT SCT BKN BKN BKN BKN BKN OVC OVC OVC OVC
FltCat VFR VFR VFR VFR VFR MVFR MVFR MVFR MVFR MVFR MVFR MVFR MVFR MVFR
WX -- -- -- -- -- -- -- -- -- -- -- -- -- --
WDir 290 290 290 290 290 VRB VRB VRB VRB VRB VRB VRB VRB VRB
WSpd 7 10 10 10 10 5 5 5 5 5 5 5 5 5
WGst -- -- -- -- -- -- -- -- -- -- -- -- -- --
R09/27
XWnd 0 1 1 1 1 VRB VRB VRB VRB VRB VRB VRB VRB VRB
HWnd -7 -10 -10 -10 -10 VRB VRB VRB VRB VRB VRB VRB VRB VRB

NOTE: TEMPO conditions in [brackets]. Keep in mind TEMPO conditions might be better (lower impact) than prevailing conditions.

Raw TAF
KSAN 292021Z 2920/3024 29008KT P6SM SCT012 OVC030
  FM292130 29010KT P6SM SCT025 SCT250
  FM300200 VRB05KT P6SM BKN020
  FM300700 VRB05KT P6SM OVC016
  FM302100 28011KT P6SM SCT020


Raw METAR
KSAN 292051Z 29007KT 10SM SCT024 OVC033 19/12 A3002 RMK AO2 SLP166 T01940122 58005 $
KSAN 292005Z 30008KT 10SM SCT021 OVC031 19/12 A3003 RMK AO2 $
KSAN 291951Z 29006KT 10SM SCT015 BKN021 19/12 A3003 RMK AO2 SLP169 T01890122 $
KSAN 291851Z 30007KT 10SM BKN019 OVC025 18/12 A3004 RMK AO2 SLP172 T01780122 $

METAR Board
Radar Display
Forecast Discussion

TAF Board Legend

Potential Impact
Threat None Slight Moderate High
Visibility (sm) ≥5.1 5.1>X≥3 3>X≥1 <1
Ceiling (100 ft) ≥30.1 30.1>X≥10 10>X≥5 <5
Wind Speed (kt) <10 10≤X<20 20≤X<30 ≥30
Wind Gust (kt) <15 15≤X<25 25≤X<35 ≥35
Weather No Wx Reported VCTS,-TS,-FZRA,SN TS,FZRA +TS,+FZRA,+SN